sensor_id;sensor_type;location;lat;lon;timestamp;temperature;humidity
49765;DHT22;35657;51.204;-4.130;2023-10-13T00:00:30;16.70;99.90
49765;DHT22;35657;51.204;-4.130;2023-10-13T00:02:58;16.60;99.90
49765;DHT22;35657;51.204;-4.130;2023-10-13T00:05:28;16.60;99.90
49765;DHT22;35657;51.204;-4.130;2023-10-13T00:07:56;16.60;99.90
49765;DHT22;35657;51.204;-4.130;2023-10-13T00:10:29;16.60;99.90
49765;DHT22;35657;51.204;-4.130;2023-10-13T00:12:56;16.60;99.90
49765;DHT22;35657;51.204;-4.130;2023-10-13T00:15:44;16.50;99.90
49765;DHT22;35657;51.204;-4.130;2023-10-13T00:18:30;16.50;99.90
49765;DHT22;35657;51.204;-4.130;2023-10-13T00:21:02;16.50;99.90
49765;DHT22;35657;51.204;-4.130;2023-10-13T00:23:45;16.50;99.90
49765;DHT22;35657;51.204;-4.130;2023-10-13T00:26:26;16.50;99.90
49765;DHT22;35657;51.204;-4.130;2023-10-13T00:29:00;16.50;99.90
49765;DHT22;35657;51.204;-4.130;2023-10-13T00:31:33;16.50;99.90
49765;DHT22;35657;51.204;-4.130;2023-10-13T00:34:02;16.50;99.90
49765;DHT22;35657;51.204;-4.130;2023-10-13T00:36:46;16.50;99.90
49765;DHT22;35657;51.204;-4.130;2023-10-13T00:39:32;16.40;99.90
49765;DHT22;35657;51.204;-4.130;2023-10-13T00:42:02;16.50;99.90
49765;DHT22;35657;51.204;-4.130;2023-10-13T00:44:33;16.50;99.90
49765;DHT22;35657;51.204;-4.130;2023-10-13T00:47:09;16.50;99.90
49765;DHT22;35657;51.204;-4.130;2023-10-13T00:49:36;16.50;99.90
49765;DHT22;35657;51.204;-4.130;2023-10-13T00:52:08;16.50;99.90
49765;DHT22;35657;51.204;-4.130;2023-10-13T00:54:39;16.50;99.90
49765;DHT22;35657;51.204;-4.130;2023-10-13T00:57:05;16.60;99.90
49765;DHT22;35657;51.204;-4.130;2023-10-13T00:59:37;16.60;99.90
49765;DHT22;35657;51.204;-4.130;2023-10-13T01:02:03;16.60;99.90
49765;DHT22;35657;51.204;-4.130;2023-10-13T01:04:49;16.60;99.90
49765;DHT22;35657;51.204;-4.130;2023-10-13T01:07:14;16.50;99.90
49765;DHT22;35657;51.204;-4.130;2023-10-13T01:09:42;16.50;99.90
49765;DHT22;35657;51.204;-4.130;2023-10-13T01:12:08;16.50;99.90
49765;DHT22;35657;51.204;-4.130;2023-10-13T01:14:34;16.50;99.90
49765;DHT22;35657;51.204;-4.130;2023-10-13T01:17:02;16.50;99.90
49765;DHT22;35657;51.204;-4.130;2023-10-13T01:19:29;16.50;99.90
49765;DHT22;35657;51.204;-4.130;2023-10-13T01:21:55;16.50;99.90
49765;DHT22;35657;51.204;-4.130;2023-10-13T01:24:32;16.50;99.90
49765;DHT22;35657;51.204;-4.130;2023-10-13T01:27:02;16.50;99.90
49765;DHT22;35657;51.204;-4.130;2023-10-13T01:29:54;16.50;99.90
49765;DHT22;35657;51.204;-4.130;2023-10-13T01:32:35;16.50;99.90
49765;DHT22;35657;51.204;-4.130;2023-10-13T01:35:07;16.50;99.90
49765;DHT22;35657;51.204;-4.130;2023-10-13T01:37:33;16.50;99.90
49765;DHT22;35657;51.204;-4.130;2023-10-13T01:39:58;16.50;99.90
49765;DHT22;35657;51.204;-4.130;2023-10-13T01:42:24;16.50;99.90
49765;DHT22;35657;51.204;-4.130;2023-10-13T01:44:50;16.50;99.90
49765;DHT22;35657;51.204;-4.130;2023-10-13T01:47:17;16.50;99.90
49765;DHT22;35657;51.204;-4.130;2023-10-13T01:49:43;16.50;99.90
49765;DHT22;35657;51.204;-4.130;2023-10-13T01:52:14;16.50;99.90
49765;DHT22;35657;51.204;-4.130;2023-10-13T01:54:45;16.50;99.90
49765;DHT22;35657;51.204;-4.130;2023-10-13T01:57:12;16.60;99.90
49765;DHT22;35657;51.204;-4.130;2023-10-13T01:59:49;16.60;99.90
49765;DHT22;35657;51.204;-4.130;2023-10-13T02:02:15;16.60;99.90
49765;DHT22;35657;51.204;-4.130;2023-10-13T02:04:54;16.60;99.90
49765;DHT22;35657;51.204;-4.130;2023-10-13T02:07:26;16.70;99.90
49765;DHT22;35657;51.204;-4.130;2023-10-13T02:10:00;16.70;99.90
49765;DHT22;35657;51.204;-4.130;2023-10-13T02:12:30;16.70;99.90
49765;DHT22;35657;51.204;-4.130;2023-10-13T02:15:11;16.70;99.90
49765;DHT22;35657;51.204;-4.130;2023-10-13T02:17:39;16.70;99.90
49765;DHT22;35657;51.204;-4.130;2023-10-13T02:20:08;16.70;99.90
49765;DHT22;35657;51.204;-4.130;2023-10-13T02:22:39;16.80;99.90
49765;DHT22;35657;51.204;-4.130;2023-10-13T02:25:15;16.80;99.90
49765;DHT22;35657;51.204;-4.130;2023-10-13T02:27:43;16.80;99.90
49765;DHT22;35657;51.204;-4.130;2023-10-13T02:30:09;16.80;99.90
49765;DHT22;35657;51.204;-4.130;2023-10-13T02:32:40;16.90;99.90
49765;DHT22;35657;51.204;-4.130;2023-10-13T02:35:09;16.90;99.90
49765;DHT22;35657;51.204;-4.130;2023-10-13T02:37:41;16.90;99.90
49765;DHT22;35657;51.204;-4.130;2023-10-13T02:40:13;16.90;99.90
49765;DHT22;35657;51.204;-4.130;2023-10-13T02:42:39;17.00;99.90
49765;DHT22;35657;51.204;-4.130;2023-10-13T02:45:05;17.00;99.90
49765;DHT22;35657;51.204;-4.130;2023-10-13T02:47:31;17.00;99.90
49765;DHT22;35657;51.204;-4.130;2023-10-13T02:49:58;17.00;99.90
49765;DHT22;35657;51.204;-4.130;2023-10-13T02:52:28;17.00;99.90
49765;DHT22;35657;51.204;-4.130;2023-10-13T02:55:00;17.00;99.90
49765;DHT22;35657;51.204;-4.130;2023-10-13T02:57:26;17.10;99.90
49765;DHT22;35657;51.204;-4.130;2023-10-13T02:59:52;17.10;99.90
49765;DHT22;35657;51.204;-4.130;2023-10-13T03:02:37;17.10;99.90
49765;DHT22;35657;51.204;-4.130;2023-10-13T03:05:09;17.10;99.90
49765;DHT22;35657;51.204;-4.130;2023-10-13T03:07:39;17.10;99.90
49765;DHT22;35657;51.204;-4.130;2023-10-13T03:10:09;17.20;99.90
49765;DHT22;35657;51.204;-4.130;2023-10-13T03:12:38;17.20;99.90
49765;DHT22;35657;51.204;-4.130;2023-10-13T03:15:05;17.20;99.90
49765;DHT22;35657;51.204;-4.130;2023-10-13T03:17:40;17.30;99.90
49765;DHT22;35657;51.204;-4.130;2023-10-13T03:20:13;17.30;99.90
49765;DHT22;35657;51.204;-4.130;2023-10-13T03:22:40;17.40;99.90
49765;DHT22;35657;51.204;-4.130;2023-10-13T03:25:07;17.40;99.90
49765;DHT22;35657;51.204;-4.130;2023-10-13T03:27:35;17.30;99.90
49765;DHT22;35657;51.204;-4.130;2023-10-13T03:30:19;17.30;99.90
49765;DHT22;35657;51.204;-4.130;2023-10-13T03:32:46;17.40;99.90
49765;DHT22;35657;51.204;-4.130;2023-10-13T03:35:14;17.40;99.90
49765;DHT22;35657;51.204;-4.130;2023-10-13T03:37:50;17.30;99.90
49765;DHT22;35657;51.204;-4.130;2023-10-13T03:40:15;17.40;99.90
49765;DHT22;35657;51.204;-4.130;2023-10-13T03:42:55;17.40;99.90
49765;DHT22;35657;51.204;-4.130;2023-10-13T03:45:34;17.40;99.90
49765;DHT22;35657;51.204;-4.130;2023-10-13T03:48:17;17.40;99.90
49765;DHT22;35657;51.204;-4.130;2023-10-13T03:50:55;17.40;99.90
49765;DHT22;35657;51.204;-4.130;2023-10-13T03:53:30;17.40;99.90
49765;DHT22;35657;51.204;-4.130;2023-10-13T03:56:03;17.40;99.90
49765;DHT22;35657;51.204;-4.130;2023-10-13T03:58:38;17.40;99.90
49765;DHT22;35657;51.204;-4.130;2023-10-13T04:01:08;17.40;99.90
49765;DHT22;35657;51.204;-4.130;2023-10-13T04:03:38;17.40;99.90
49765;DHT22;35657;51.204;-4.130;2023-10-13T04:06:07;17.40;99.90
49765;DHT22;35657;51.204;-4.130;2023-10-13T04:08:33;17.40;99.90
49765;DHT22;35657;51.204;-4.130;2023-10-13T04:11:09;17.40;99.90
49765;DHT22;35657;51.204;-4.130;2023-10-13T04:13:53;17.40;99.90
49765;DHT22;35657;51.204;-4.130;2023-10-13T04:16:37;17.40;99.90
49765;DHT22;35657;51.204;-4.130;2023-10-13T04:19:17;17.50;99.90
49765;DHT22;35657;51.204;-4.130;2023-10-13T04:21:52;17.50;99.90
49765;DHT22;35657;51.204;-4.130;2023-10-13T04:24:25;17.60;99.90
49765;DHT22;35657;51.204;-4.130;2023-10-13T04:26:52;17.50;99.90
49765;DHT22;35657;51.204;-4.130;2023-10-13T04:29:36;17.50;99.90
49765;DHT22;35657;51.204;-4.130;2023-10-13T04:32:36;17.60;99.90
49765;DHT22;35657;51.204;-4.130;2023-10-13T04:35:07;17.60;99.90
49765;DHT22;35657;51.204;-4.130;2023-10-13T04:37:44;17.60;99.90
49765;DHT22;35657;51.204;-4.130;2023-10-13T04:40:17;17.60;99.90
49765;DHT22;35657;51.204;-4.130;2023-10-13T04:42:45;17.60;99.90
49765;DHT22;35657;51.204;-4.130;2023-10-13T04:45:17;17.50;99.90
49765;DHT22;35657;51.204;-4.130;2023-10-13T04:48:00;17.60;99.90
49765;DHT22;35657;51.204;-4.130;2023-10-13T04:50:41;17.50;99.90
49765;DHT22;35657;51.204;-4.130;2023-10-13T04:53:16;17.50;99.90
49765;DHT22;35657;51.204;-4.130;2023-10-13T04:56:21;17.50;99.90
49765;DHT22;35657;51.204;-4.130;2023-10-13T04:59:05;17.50;99.90
49765;DHT22;35657;51.204;-4.130;2023-10-13T05:01:49;17.50;99.90
49765;DHT22;35657;51.204;-4.130;2023-10-13T05:04:33;17.50;99.90
49765;DHT22;35657;51.204;-4.130;2023-10-13T05:07:24;17.50;99.90
49765;DHT22;35657;51.204;-4.130;2023-10-13T05:10:08;17.40;99.90
49765;DHT22;35657;51.204;-4.130;2023-10-13T05:12:53;17.40;99.90
49765;DHT22;35657;51.204;-4.130;2023-10-13T05:15:46;17.40;99.90
49765;DHT22;35657;51.204;-4.130;2023-10-13T05:18:30;17.50;99.90
49765;DHT22;35657;51.204;-4.130;2023-10-13T05:21:14;17.50;99.90
49765;DHT22;35657;51.204;-4.130;2023-10-13T05:23:59;17.40;99.90
49765;DHT22;35657;51.204;-4.130;2023-10-13T05:26:44;17.50;99.90
49765;DHT22;35657;51.204;-4.130;2023-10-13T05:29:28;17.50;99.90
49765;DHT22;35657;51.204;-4.130;2023-10-13T05:32:13;17.50;99.90
49765;DHT22;35657;51.204;-4.130;2023-10-13T05:34:57;17.50;99.90
49765;DHT22;35657;51.204;-4.130;2023-10-13T05:37:41;17.40;99.90
49765;DHT22;35657;51.204;-4.130;2023-10-13T05:40:25;17.40;99.90
49765;DHT22;35657;51.204;-4.130;2023-10-13T05:43:10;17.40;99.90
49765;DHT22;35657;51.204;-4.130;2023-10-13T05:46:00;17.40;99.90
49765;DHT22;35657;51.204;-4.130;2023-10-13T05:48:44;17.40;99.90
49765;DHT22;35657;51.204;-4.130;2023-10-13T05:54:05;17.40;99.90
49765;DHT22;35657;51.204;-4.130;2023-10-13T05:56:44;17.30;99.90
49765;DHT22;35657;51.204;-4.130;2023-10-13T05:59:33;17.30;99.90
49765;DHT22;35657;51.204;-4.130;2023-10-13T06:02:19;17.30;99.90
49765;DHT22;35657;51.204;-4.130;2023-10-13T06:05:05;17.30;99.90
49765;DHT22;35657;51.204;-4.130;2023-10-13T06:08:07;17.30;99.90
49765;DHT22;35657;51.204;-4.130;2023-10-13T06:11:01;17.30;99.90
49765;DHT22;35657;51.204;-4.130;2023-10-13T06:13:46;17.30;99.90
49765;DHT22;35657;51.204;-4.130;2023-10-13T06:16:31;17.20;99.90
49765;DHT22;35657;51.204;-4.130;2023-10-13T06:19:14;17.20;99.90
49765;DHT22;35657;51.204;-4.130;2023-10-13T06:21:58;17.20;99.90
49765;DHT22;35657;51.204;-4.130;2023-10-13T06:24:43;17.20;99.90
49765;DHT22;35657;51.204;-4.130;2023-10-13T06:27:27;17.20;99.90
49765;DHT22;35657;51.204;-4.130;2023-10-13T06:30:12;17.20;99.90
49765;DHT22;35657;51.204;-4.130;2023-10-13T06:32:38;17.20;99.90
49765;DHT22;35657;51.204;-4.130;2023-10-13T06:35:06;17.20;99.90
49765;DHT22;35657;51.204;-4.130;2023-10-13T06:37:44;17.20;99.90
49765;DHT22;35657;51.204;-4.130;2023-10-13T06:40:12;17.20;99.90
49765;DHT22;35657;51.204;-4.130;2023-10-13T06:42:50;17.30;99.90
49765;DHT22;35657;51.204;-4.130;2023-10-13T06:45:16;17.30;99.90
49765;DHT22;35657;51.204;-4.130;2023-10-13T06:47:46;17.30;99.90
49765;DHT22;35657;51.204;-4.130;2023-10-13T06:50:13;17.30;99.90
49765;DHT22;35657;51.204;-4.130;2023-10-13T06:52:45;17.30;99.90
49765;DHT22;35657;51.204;-4.130;2023-10-13T06:55:15;17.30;99.90
49765;DHT22;35657;51.204;-4.130;2023-10-13T06:57:51;17.30;99.90
49765;DHT22;35657;51.204;-4.130;2023-10-13T07:00:17;17.20;99.90
49765;DHT22;35657;51.204;-4.130;2023-10-13T07:02:54;17.20;99.90
49765;DHT22;35657;51.204;-4.130;2023-10-13T07:05:35;17.20;99.90
49765;DHT22;35657;51.204;-4.130;2023-10-13T07:08:01;17.20;99.90
49765;DHT22;35657;51.204;-4.130;2023-10-13T07:10:30;17.10;99.90
49765;DHT22;35657;51.204;-4.130;2023-10-13T07:12:57;17.10;99.90
49765;DHT22;35657;51.204;-4.130;2023-10-13T07:15:26;17.10;99.90
49765;DHT22;35657;51.204;-4.130;2023-10-13T07:17:54;17.10;99.90
49765;DHT22;35657;51.204;-4.130;2023-10-13T07:20:25;17.10;99.90
49765;DHT22;35657;51.204;-4.130;2023-10-13T07:22:51;17.10;99.90
49765;DHT22;35657;51.204;-4.130;2023-10-13T07:25:29;17.10;99.90
49765;DHT22;35657;51.204;-4.130;2023-10-13T07:28:03;17.10;99.90
49765;DHT22;35657;51.204;-4.130;2023-10-13T07:30:30;17.10;99.90
49765;DHT22;35657;51.204;-4.130;2023-10-13T07:33:05;17.00;99.90
49765;DHT22;35657;51.204;-4.130;2023-10-13T07:35:31;17.00;99.90
49765;DHT22;35657;51.204;-4.130;2023-10-13T07:38:01;17.00;99.90
49765;DHT22;35657;51.204;-4.130;2023-10-13T07:40:27;17.00;99.90
49765;DHT22;35657;51.204;-4.130;2023-10-13T07:43:05;17.00;99.90
49765;DHT22;35657;51.204;-4.130;2023-10-13T07:45:39;17.00;99.90
49765;DHT22;35657;51.204;-4.130;2023-10-13T07:48:09;17.00;99.90
49765;DHT22;35657;51.204;-4.130;2023-10-13T07:50:44;17.00;99.90
49765;DHT22;35657;51.204;-4.130;2023-10-13T07:53:11;17.10;99.90
49765;DHT22;35657;51.204;-4.130;2023-10-13T07:55:50;17.20;99.90
49765;DHT22;35657;51.204;-4.130;2023-10-13T07:58:23;17.20;99.90
49765;DHT22;35657;51.204;-4.130;2023-10-13T08:00:52;17.20;99.90
49765;DHT22;35657;51.204;-4.130;2023-10-13T08:03:24;17.30;99.90
49765;DHT22;35657;51.204;-4.130;2023-10-13T08:06:08;17.20;99.90
49765;DHT22;35657;51.204;-4.130;2023-10-13T08:08:37;17.30;99.90
49765;DHT22;35657;51.204;-4.130;2023-10-13T08:11:11;17.30;99.90
49765;DHT22;35657;51.204;-4.130;2023-10-13T08:13:41;17.20;99.90
49765;DHT22;35657;51.204;-4.130;2023-10-13T08:16:15;17.20;99.90
49765;DHT22;35657;51.204;-4.130;2023-10-13T08:18:49;17.10;99.90
49765;DHT22;35657;51.204;-4.130;2023-10-13T08:21:19;17.10;99.90
49765;DHT22;35657;51.204;-4.130;2023-10-13T08:23:59;17.10;99.90
49765;DHT22;35657;51.204;-4.130;2023-10-13T08:26:36;17.10;99.90
49765;DHT22;35657;51.204;-4.130;2023-10-13T08:29:03;17.10;99.90
49765;DHT22;35657;51.204;-4.130;2023-10-13T08:31:44;17.10;99.90
49765;DHT22;35657;51.204;-4.130;2023-10-13T08:34:31;17.10;99.90
49765;DHT22;35657;51.204;-4.130;2023-10-13T08:37:13;17.10;99.90
49765;DHT22;35657;51.204;-4.130;2023-10-13T08:39:56;17.10;99.90
49765;DHT22;35657;51.204;-4.130;2023-10-13T08:42:37;17.10;99.90
49765;DHT22;35657;51.204;-4.130;2023-10-13T08:47:54;17.10;99.90
49765;DHT22;35657;51.204;-4.130;2023-10-13T08:50:48;17.10;99.90
49765;DHT22;35657;51.204;-4.130;2023-10-13T08:53:27;17.10;99.90
49765;DHT22;35657;51.204;-4.130;2023-10-13T08:56:09;17.10;99.90
49765;DHT22;35657;51.204;-4.130;2023-10-13T08:58:57;17.10;99.90
49765;DHT22;35657;51.204;-4.130;2023-10-13T09:01:33;17.20;99.90
49765;DHT22;35657;51.204;-4.130;2023-10-13T09:04:14;17.30;99.90
49765;DHT22;35657;51.204;-4.130;2023-10-13T09:09:29;17.40;99.90
49765;DHT22;35657;51.204;-4.130;2023-10-13T09:12:20;17.50;99.90
49765;DHT22;35657;51.204;-4.130;2023-10-13T09:14:56;17.50;99.90
49765;DHT22;35657;51.204;-4.130;2023-10-13T09:17:30;17.60;99.90
49765;DHT22;35657;51.204;-4.130;2023-10-13T09:20:01;17.60;99.90
49765;DHT22;35657;51.204;-4.130;2023-10-13T09:22:46;17.50;99.90
49765;DHT22;35657;51.204;-4.130;2023-10-13T09:25:32;17.40;99.90
49765;DHT22;35657;51.204;-4.130;2023-10-13T09:30:43;17.30;99.90
49765;DHT22;35657;51.204;-4.130;2023-10-13T09:33:09;17.30;99.90
49765;DHT22;35657;51.204;-4.130;2023-10-13T09:35:44;17.30;99.90
49765;DHT22;35657;51.204;-4.130;2023-10-13T09:38:17;17.30;99.90
49765;DHT22;35657;51.204;-4.130;2023-10-13T09:40:45;17.30;99.90
49765;DHT22;35657;51.204;-4.130;2023-10-13T09:43:16;17.30;99.90
49765;DHT22;35657;51.204;-4.130;2023-10-13T09:45:47;17.30;99.90
49765;DHT22;35657;51.204;-4.130;2023-10-13T09:48:32;17.30;99.90
49765;DHT22;35657;51.204;-4.130;2023-10-13T09:51:03;17.30;99.90
49765;DHT22;35657;51.204;-4.130;2023-10-13T09:53:35;17.20;99.90
49765;DHT22;35657;51.204;-4.130;2023-10-13T09:56:12;17.20;99.90
49765;DHT22;35657;51.204;-4.130;2023-10-13T09:59:10;17.20;99.90
49765;DHT22;35657;51.204;-4.130;2023-10-13T10:01:43;17.10;99.90
49765;DHT22;35657;51.204;-4.130;2023-10-13T10:04:23;17.10;99.90
49765;DHT22;35657;51.204;-4.130;2023-10-13T10:06:55;17.20;99.90
49765;DHT22;35657;51.204;-4.130;2023-10-13T10:09:30;17.20;99.90
49765;DHT22;35657;51.204;-4.130;2023-10-13T10:17:22;17.40;99.90
49765;DHT22;35657;51.204;-4.130;2023-10-13T10:19:52;17.50;99.90
49765;DHT22;35657;51.204;-4.130;2023-10-13T10:25:05;17.70;99.90
49765;DHT22;35657;51.204;-4.130;2023-10-13T10:28:04;17.80;99.90
49765;DHT22;35657;51.204;-4.130;2023-10-13T10:30:35;17.90;99.90
49765;DHT22;35657;51.204;-4.130;2023-10-13T10:33:06;17.90;99.90
49765;DHT22;35657;51.204;-4.130;2023-10-13T10:35:44;17.90;99.90
49765;DHT22;35657;51.204;-4.130;2023-10-13T10:38:17;18.00;99.90
49765;DHT22;35657;51.204;-4.130;2023-10-13T10:40:56;18.00;99.90
49765;DHT22;35657;51.204;-4.130;2023-10-13T10:43:38;18.00;99.90
49765;DHT22;35657;51.204;-4.130;2023-10-13T10:46:17;18.10;99.90
49765;DHT22;35657;51.204;-4.130;2023-10-13T10:48:44;18.10;99.90
49765;DHT22;35657;51.204;-4.130;2023-10-13T10:51:14;18.10;99.90
49765;DHT22;35657;51.204;-4.130;2023-10-13T10:53:42;18.20;99.90
49765;DHT22;35657;51.204;-4.130;2023-10-13T10:56:13;18.30;99.90
49765;DHT22;35657;51.204;-4.130;2023-10-13T10:58:49;18.30;99.90
49765;DHT22;35657;51.204;-4.130;2023-10-13T11:01:20;18.20;99.90
49765;DHT22;35657;51.204;-4.130;2023-10-13T11:04:16;18.20;99.90
49765;DHT22;35657;51.204;-4.130;2023-10-13T11:06:48;18.20;99.90
49765;DHT22;35657;51.204;-4.130;2023-10-13T11:09:14;18.20;99.90
49765;DHT22;35657;51.204;-4.130;2023-10-13T11:14:32;18.20;99.90
49765;DHT22;35657;51.204;-4.130;2023-10-13T11:16:59;18.20;99.90
49765;DHT22;35657;51.204;-4.130;2023-10-13T11:19:38;18.30;99.90
49765;DHT22;35657;51.204;-4.130;2023-10-13T11:22:18;18.30;99.90
49765;DHT22;35657;51.204;-4.130;2023-10-13T11:25:29;18.40;99.90
49765;DHT22;35657;51.204;-4.130;2023-10-13T11:27:56;18.50;99.90
49765;DHT22;35657;51.204;-4.130;2023-10-13T11:30:23;18.50;99.90
49765;DHT22;35657;51.204;-4.130;2023-10-13T11:33:03;18.50;99.90
49765;DHT22;35657;51.204;-4.130;2023-10-13T11:35:33;18.50;99.90
49765;DHT22;35657;51.204;-4.130;2023-10-13T11:38:15;18.50;99.90
49765;DHT22;35657;51.204;-4.130;2023-10-13T11:40:51;18.50;99.90
49765;DHT22;35657;51.204;-4.130;2023-10-13T11:46:15;18.50;99.90
49765;DHT22;35657;51.204;-4.130;2023-10-13T11:49:03;18.50;99.90
49765;DHT22;35657;51.204;-4.130;2023-10-13T11:51:46;18.40;99.90
49765;DHT22;35657;51.204;-4.130;2023-10-13T11:54:17;18.40;99.90
49765;DHT22;35657;51.204;-4.130;2023-10-13T11:56:46;18.40;99.90
49765;DHT22;35657;51.204;-4.130;2023-10-13T11:59:12;18.40;99.90
49765;DHT22;35657;51.204;-4.130;2023-10-13T12:01:49;18.40;99.90
49765;DHT22;35657;51.204;-4.130;2023-10-13T12:04:34;18.40;99.90
49765;DHT22;35657;51.204;-4.130;2023-10-13T12:07:09;18.40;99.90
49765;DHT22;35657;51.204;-4.130;2023-10-13T12:09:55;18.40;99.90
49765;DHT22;35657;51.204;-4.130;2023-10-13T12:12:24;18.40;99.90
49765;DHT22;35657;51.204;-4.130;2023-10-13T12:14:50;18.40;99.90
49765;DHT22;35657;51.204;-4.130;2023-10-13T12:17:26;18.40;99.90
49765;DHT22;35657;51.204;-4.130;2023-10-13T12:20:02;18.40;99.90
49765;DHT22;35657;51.204;-4.130;2023-10-13T12:22:31;18.30;99.90
49765;DHT22;35657;51.204;-4.130;2023-10-13T12:25:17;18.40;99.90
49765;DHT22;35657;51.204;-4.130;2023-10-13T12:28:10;18.40;99.90
49765;DHT22;35657;51.204;-4.130;2023-10-13T12:30:45;18.40;99.90
49765;DHT22;35657;51.204;-4.130;2023-10-13T12:33:20;18.50;99.90
49765;DHT22;35657;51.204;-4.130;2023-10-13T12:36:06;18.50;99.90
49765;DHT22;35657;51.204;-4.130;2023-10-13T12:38:37;18.50;99.90
49765;DHT22;35657;51.204;-4.130;2023-10-13T12:41:19;18.50;99.90
49765;DHT22;35657;51.204;-4.130;2023-10-13T12:44:04;18.50;99.90
49765;DHT22;35657;51.204;-4.130;2023-10-13T12:46:49;18.50;99.90
49765;DHT22;35657;51.204;-4.130;2023-10-13T12:49:34;18.50;99.90
49765;DHT22;35657;51.204;-4.130;2023-10-13T12:52:12;18.50;99.90
49765;DHT22;35657;51.204;-4.130;2023-10-13T12:54:44;18.50;99.90
49765;DHT22;35657;51.204;-4.130;2023-10-13T12:57:25;18.40;99.90
49765;DHT22;35657;51.204;-4.130;2023-10-13T12:59:51;18.30;99.90
49765;DHT22;35657;51.204;-4.130;2023-10-13T13:02:26;18.30;99.90
49765;DHT22;35657;51.204;-4.130;2023-10-13T13:04:52;18.30;99.90
49765;DHT22;35657;51.204;-4.130;2023-10-13T13:07:27;18.20;99.90
49765;DHT22;35657;51.204;-4.130;2023-10-13T13:09:56;18.10;99.90
49765;DHT22;35657;51.204;-4.130;2023-10-13T13:12:25;18.10;99.90
49765;DHT22;35657;51.204;-4.130;2023-10-13T13:14:53;18.10;99.90
49765;DHT22;35657;51.204;-4.130;2023-10-13T13:17:23;18.00;99.90
49765;DHT22;35657;51.204;-4.130;2023-10-13T13:19:49;18.00;99.90
49765;DHT22;35657;51.204;-4.130;2023-10-13T13:22:14;17.90;99.90
49765;DHT22;35657;51.204;-4.130;2023-10-13T13:24:42;17.90;99.90
49765;DHT22;35657;51.204;-4.130;2023-10-13T13:27:16;17.80;99.90
49765;DHT22;35657;51.204;-4.130;2023-10-13T13:29:50;17.80;99.90
49765;DHT22;35657;51.204;-4.130;2023-10-13T13:32:15;17.80;99.90
49765;DHT22;35657;51.204;-4.130;2023-10-13T13:34:53;17.70;99.90
49765;DHT22;35657;51.204;-4.130;2023-10-13T13:37:32;17.70;99.90
49765;DHT22;35657;51.204;-4.130;2023-10-13T13:39:57;17.70;99.90
49765;DHT22;35657;51.204;-4.130;2023-10-13T13:42:43;17.70;99.90
49765;DHT22;35657;51.204;-4.130;2023-10-13T13:45:15;17.40;99.90
49765;DHT22;35657;51.204;-4.130;2023-10-13T13:47:52;17.10;99.90
49765;DHT22;35657;51.204;-4.130;2023-10-13T13:50:22;17.00;99.90
49765;DHT22;35657;51.204;-4.130;2023-10-13T13:52:56;16.80;99.90
49765;DHT22;35657;51.204;-4.130;2023-10-13T13:55:23;16.70;99.90
49765;DHT22;35657;51.204;-4.130;2023-10-13T13:57:50;16.60;99.90
49765;DHT22;35657;51.204;-4.130;2023-10-13T14:00:19;16.50;99.90
49765;DHT22;35657;51.204;-4.130;2023-10-13T14:03:09;16.40;99.90
49765;DHT22;35657;51.204;-4.130;2023-10-13T14:05:42;16.20;99.90
49765;DHT22;35657;51.204;-4.130;2023-10-13T14:08:08;16.30;99.90
49765;DHT22;35657;51.204;-4.130;2023-10-13T14:10:38;16.20;99.90
49765;DHT22;35657;51.204;-4.130;2023-10-13T14:13:23;16.20;99.90
49765;DHT22;35657;51.204;-4.130;2023-10-13T14:16:09;16.10;99.90
49765;DHT22;35657;51.204;-4.130;2023-10-13T14:18:45;15.90;99.90
49765;DHT22;35657;51.204;-4.130;2023-10-13T14:21:11;15.80;99.90
49765;DHT22;35657;51.204;-4.130;2023-10-13T14:23:46;15.80;99.90
49765;DHT22;35657;51.204;-4.130;2023-10-13T14:26:14;15.80;99.90
49765;DHT22;35657;51.204;-4.130;2023-10-13T14:28:40;15.70;99.90
49765;DHT22;35657;51.204;-4.130;2023-10-13T14:31:18;15.70;99.90
49765;DHT22;35657;51.204;-4.130;2023-10-13T14:33:45;15.60;99.90
49765;DHT22;35657;51.204;-4.130;2023-10-13T14:36:15;15.70;99.90
49765;DHT22;35657;51.204;-4.130;2023-10-13T14:38:48;15.60;99.90
49765;DHT22;35657;51.204;-4.130;2023-10-13T14:41:17;15.60;99.90
49765;DHT22;35657;51.204;-4.130;2023-10-13T14:43:49;15.50;99.90
49765;DHT22;35657;51.204;-4.130;2023-10-13T14:46:19;15.40;99.90
49765;DHT22;35657;51.204;-4.130;2023-10-13T14:48:54;15.40;99.90
49765;DHT22;35657;51.204;-4.130;2023-10-13T14:51:20;15.30;99.90
49765;DHT22;35657;51.204;-4.130;2023-10-13T14:53:47;15.30;99.90
49765;DHT22;35657;51.204;-4.130;2023-10-13T14:56:16;15.20;99.90
49765;DHT22;35657;51.204;-4.130;2023-10-13T14:58:43;15.10;99.90
49765;DHT22;35657;51.204;-4.130;2023-10-13T15:01:16;15.20;99.90
49765;DHT22;35657;51.204;-4.130;2023-10-13T15:03:48;15.10;99.90
49765;DHT22;35657;51.204;-4.130;2023-10-13T15:06:21;15.00;99.90
49765;DHT22;35657;51.204;-4.130;2023-10-13T15:08:51;15.00;99.90
49765;DHT22;35657;51.204;-4.130;2023-10-13T15:11:19;15.00;99.90
49765;DHT22;35657;51.204;-4.130;2023-10-13T15:13:45;15.00;99.90
49765;DHT22;35657;51.204;-4.130;2023-10-13T15:16:18;15.00;99.90
49765;DHT22;35657;51.204;-4.130;2023-10-13T15:18:50;14.80;99.90
49765;DHT22;35657;51.204;-4.130;2023-10-13T15:21:29;14.80;99.90
49765;DHT22;35657;51.204;-4.130;2023-10-13T15:24:04;14.70;99.90
49765;DHT22;35657;51.204;-4.130;2023-10-13T15:26:39;14.90;99.90
49765;DHT22;35657;51.204;-4.130;2023-10-13T15:29:07;15.00;99.90
49765;DHT22;35657;51.204;-4.130;2023-10-13T15:31:38;14.80;99.90
49765;DHT22;35657;51.204;-4.130;2023-10-13T15:34:13;14.80;99.90
49765;DHT22;35657;51.204;-4.130;2023-10-13T15:36:40;14.70;99.90
49765;DHT22;35657;51.204;-4.130;2023-10-13T15:39:08;14.70;99.90
49765;DHT22;35657;51.204;-4.130;2023-10-13T15:41:35;14.60;99.90
49765;DHT22;35657;51.204;-4.130;2023-10-13T15:44:04;14.60;99.90
49765;DHT22;35657;51.204;-4.130;2023-10-13T15:46:35;14.70;99.90
49765;DHT22;35657;51.204;-4.130;2023-10-13T15:49:01;14.80;99.90
49765;DHT22;35657;51.204;-4.130;2023-10-13T15:51:28;14.70;99.90
49765;DHT22;35657;51.204;-4.130;2023-10-13T15:53:55;14.80;99.90
49765;DHT22;35657;51.204;-4.130;2023-10-13T15:56:21;14.70;99.90
49765;DHT22;35657;51.204;-4.130;2023-10-13T15:58:48;14.80;99.90
49765;DHT22;35657;51.204;-4.130;2023-10-13T16:01:15;14.80;99.90
49765;DHT22;35657;51.204;-4.130;2023-10-13T16:03:42;14.70;99.90
49765;DHT22;35657;51.204;-4.130;2023-10-13T16:06:10;14.70;99.90
49765;DHT22;35657;51.204;-4.130;2023-10-13T16:08:37;14.60;99.90
49765;DHT22;35657;51.204;-4.130;2023-10-13T16:11:07;14.60;99.90
49765;DHT22;35657;51.204;-4.130;2023-10-13T16:13:36;14.60;99.90
49765;DHT22;35657;51.204;-4.130;2023-10-13T16:16:03;14.50;99.90
49765;DHT22;35657;51.204;-4.130;2023-10-13T16:18:28;14.50;99.90
49765;DHT22;35657;51.204;-4.130;2023-10-13T16:20:59;14.50;99.90
49765;DHT22;35657;51.204;-4.130;2023-10-13T16:23:32;14.50;99.90